Terminal Aerodrome Forecast
Issued by NWS

Home | Current Version | Previous Version | Text Only | Print | Product List | Glossary On
Versions: 1 2 3 4 5 6 7 8 9 10 11 12 13 14 15
000
FTUS46 KLOX 281700
TAFOXR
TAF
KOXR 281740Z 2818/0118 28007KT P6SM SCT180 BKN250
     FM282000 27012KT P6SM SCT025 BKN050
     FM010200 33007KT 6SM -SHRA SCT025 BKN050
     FM010800 VRB03KT 6SM -SHRA SCT015 BKN035 BKN070 PROB30
      0108/0112 25020KT -TSRA OVC035CB=

USA.gov is the U.S. government's official web portal to all federal, state and local government web resources and services.